Time;durP1;ratioP1;P1;durP2;ratioP2;P2;SDS_P1;SDS_P2;PMS_P1;PMS_P2;Temp;Humidity;BMP_temperature;BMP_pressure;BME280_temperature;BME280_humidity;BME280_pressure;Samples;Min_cycle;Max_cycle;Signal;HPM_P1;HPM_P2
2023/09/07 00:01:12;;;;;;;2.20;2.00;;;;;;;24.00;66.16;97860.16;5012961;28;20209;-29
2023/09/07 00:03:40;;;;;;;2.93;2.20;;;;;;;24.01;65.88;97864.47;5011873;28;20214;-28
2023/09/07 00:06:08;;;;;;;2.17;2.00;;;;;;;24.01;65.94;97861.91;5012846;28;20330;-27
2023/09/07 00:08:35;;;;;;;2.50;2.30;;;;;;;24.01;66.02;97854.22;5004696;28;20198;-29
2023/09/07 00:11:05;;;;;;;2.20;2.00;;;;;;;24.00;65.97;97847.31;5008755;28;20210;-31
2023/09/07 00:13:32;;;;;;;2.30;2.10;;;;;;;24.00;65.92;97855.00;5006157;28;20604;-28
2023/09/07 00:16:00;;;;;;;2.20;2.00;;;;;;;24.00;65.98;97853.31;5012883;28;20737;-27
2023/09/07 00:18:27;;;;;;;2.10;2.00;;;;;;;24.01;66.31;97859.34;4995179;28;20198;-27
2023/09/07 00:20:54;;;;;;;2.60;2.07;;;;;;;24.00;65.94;97852.44;5012165;28;20636;-33
2023/09/07 00:23:21;;;;;;;2.07;1.87;;;;;;;24.01;66.22;97854.22;5012095;28;20225;-27
2023/09/07 00:25:47;;;;;;;2.00;1.90;;;;;;;24.00;65.89;97848.19;5012678;28;20260;-27
2023/09/07 00:28:14;;;;;;;2.13;1.93;;;;;;;24.01;66.16;97849.06;5012146;28;20704;-29
2023/09/07 00:30:41;;;;;;;1.97;1.83;;;;;;;24.00;66.32;97850.75;5012845;28;20201;-27
2023/09/07 00:33:07;;;;;;;2.00;1.90;;;;;;;24.01;66.24;97846.50;5011926;28;20656;-29
2023/09/07 00:35:34;;;;;;;2.10;1.90;;;;;;;24.01;66.15;97851.63;4994975;28;20194;-27
2023/09/07 00:38:01;;;;;;;1.80;1.70;;;;;;;23.96;66.00;97837.81;5012367;28;20669;-30
2023/09/07 00:40:27;;;;;;;2.40;2.20;;;;;;;24.01;65.94;97847.34;5012353;28;20203;-27
2023/09/07 00:45:26;;;;;;;2.20;1.97;;;;;;;23.89;66.13;97818.78;4987978;28;20234;-26
2023/09/07 00:47:53;;;;;;;2.30;1.97;;;;;;;23.99;66.17;97836.19;4962731;28;20253;-26
2023/09/07 00:50:20;;;;;;;2.10;1.90;;;;;;;24.01;66.27;97839.66;4973548;28;20237;-26
2023/09/07 00:52:46;;;;;;;2.10;1.90;;;;;;;24.00;65.95;97840.50;4974284;28;20202;-26
2023/09/07 00:55:13;;;;;;;2.07;1.90;;;;;;;24.01;65.78;97841.38;4991655;28;20771;-28
2023/09/07 00:57:42;;;;;;;2.73;2.07;;;;;;;23.87;66.13;97817.00;4991981;28;20203;-26
2023/09/07 01:00:09;;;;;;;2.10;1.90;;;;;;;24.00;66.03;97837.91;4973643;28;20210;-26
2023/09/07 01:02:36;;;;;;;2.20;2.00;;;;;;;23.99;66.34;97836.19;4991474;28;20621;-27
2023/09/07 01:05:06;;;;;;;2.10;1.97;;;;;;;23.91;66.15;97817.13;4991334;28;20894;-26
2023/09/07 01:07:47;;;;;;;1.90;1.80;;;;;;;24.00;66.03;97832.78;4975375;28;20202;-26
2023/09/07 01:10:14;;;;;;;2.00;1.80;;;;;;;24.00;66.02;97831.91;4990096;28;20203;-32
2023/09/07 01:12:41;;;;;;;2.10;2.00;;;;;;;23.95;66.01;97824.09;4991425;28;20560;-26
2023/09/07 01:15:08;;;;;;;2.00;1.90;;;;;;;23.99;66.07;97825.94;4991519;28;20309;-26
2023/09/07 01:17:35;;;;;;;2.20;2.00;;;;;;;23.98;66.08;97824.16;4991490;28;20203;-26
2023/09/07 01:20:07;;;;;;;2.30;2.10;;;;;;;23.91;66.23;97814.56;4991964;28;20211;-26
2023/09/07 01:22:33;;;;;;;2.40;2.20;;;;;;;23.99;66.39;97830.19;4984641;28;20694;-26
2023/09/07 01:25:01;;;;;;;2.53;2.20;;;;;;;23.99;66.02;97828.50;4973900;28;20231;-26
2023/09/07 01:27:28;;;;;;;2.20;2.00;;;;;;;23.98;66.12;97818.19;4991311;28;20213;-26
2023/09/07 01:29:55;;;;;;;1.97;1.83;;;;;;;23.99;66.08;97819.91;4990951;28;20211;-26
2023/09/07 01:32:22;;;;;;;2.30;2.10;;;;;;;23.99;66.05;97827.63;4990710;28;20203;-26
2023/09/07 01:34:48;;;;;;;2.50;2.30;;;;;;;23.99;66.27;97831.06;4991695;28;20235;-26
2023/09/07 01:37:15;;;;;;;2.07;1.97;;;;;;;23.98;66.34;97823.31;4991153;28;20214;-26
2023/09/07 01:39:42;;;;;;;2.00;1.80;;;;;;;23.98;66.07;97825.88;4991598;28;20207;-26
2023/09/07 01:42:08;;;;;;;2.10;1.90;;;;;;;23.94;66.23;97816.31;4991472;28;20285;-26
2023/09/07 01:44:36;;;;;;;2.20;2.00;;;;;;;23.97;66.34;97822.44;4991166;28;20233;-26
2023/09/07 01:47:03;;;;;;;2.30;2.07;;;;;;;23.97;66.52;97831.84;4991698;28;20584;-27
2023/09/07 01:49:30;;;;;;;2.00;1.90;;;;;;;23.96;65.96;97833.56;4991323;28;20211;-26
2023/09/07 01:51:56;;;;;;;2.00;1.90;;;;;;;23.97;66.00;97836.97;4991309;28;20199;-26
2023/09/07 01:54:23;;;;;;;2.00;1.90;;;;;;;23.95;65.99;97831.78;4990951;28;20234;-26
2023/09/07 01:56:50;;;;;;;3.67;2.13;;;;;;;23.94;66.29;97830.03;4991695;28;20242;-26
2023/09/07 01:59:16;;;;;;;3.23;2.00;;;;;;;23.94;66.34;97830.03;4991183;28;20276;-26
2023/09/07 02:01:43;;;;;;;2.20;2.00;;;;;;;23.95;66.39;97834.34;4991413;28;20235;-26
2023/09/07 02:04:09;;;;;;;2.27;2.07;;;;;;;23.95;66.14;97831.78;4990983;28;20229;-26
2023/09/07 02:06:36;;;;;;;2.20;2.00;;;;;;;23.94;66.06;97832.59;4991244;28;20658;-28
2023/09/07 02:09:04;;;;;;;1.97;1.70;;;;;;;23.95;66.13;97836.06;4991679;28;20257;-26
2023/09/07 02:11:31;;;;;;;2.10;1.90;;;;;;;23.95;66.15;97842.06;4991119;28;20257;-26
2023/09/07 02:13:57;;;;;;;2.67;1.80;;;;;;;23.95;66.22;97838.63;4991368;28;20226;-26
2023/09/07 02:16:24;;;;;;;1.90;1.80;;;;;;;23.94;66.37;97834.28;4991221;28;20681;-26
2023/09/07 02:18:51;;;;;;;2.10;1.90;;;;;;;23.95;66.21;97836.06;4991239;28;20673;-26
2023/09/07 02:21:17;;;;;;;2.33;2.13;;;;;;;23.95;66.38;97834.34;4973358;28;20615;-26
2023/09/07 02:23:44;;;;;;;2.20;2.00;;;;;;;23.95;66.14;97836.94;4991610;28;20219;-26
2023/09/07 02:26:11;;;;;;;2.23;2.03;;;;;;;23.95;66.63;97833.47;4990898;28;20273;-26
2023/09/07 02:28:37;;;;;;;1.90;1.70;;;;;;;23.96;66.33;97835.25;4991392;28;20238;-26
2023/09/07 02:31:04;;;;;;;2.47;1.83;;;;;;;23.95;66.64;97839.50;4990939;28;20203;-26
2023/09/07 02:33:31;;;;;;;2.40;2.00;;;;;;;23.96;66.49;97840.38;4990962;28;20496;-26
2023/09/07 02:35:58;;;;;;;2.30;2.10;;;;;;;23.96;66.51;97836.13;4991003;28;20214;-26
2023/09/07 02:38:25;;;;;;;2.47;2.27;;;;;;;23.98;66.26;97846.44;4991302;28;20207;-26
2023/09/07 02:40:52;;;;;;;2.40;2.20;;;;;;;23.97;66.37;97837.84;4991590;28;20206;-26
2023/09/07 02:43:19;;;;;;;2.30;2.10;;;;;;;23.99;66.29;97849.03;4993966;28;20239;-26
2023/09/07 02:45:46;;;;;;;2.30;2.10;;;;;;;23.97;66.45;97850.69;4994669;28;20206;-26
2023/09/07 02:48:12;;;;;;;2.13;1.93;;;;;;;23.99;66.29;97840.44;4994151;28;20677;-26
2023/09/07 02:50:39;;;;;;;1.83;1.73;;;;;;;23.98;66.55;97833.59;4994352;28;20665;-26
2023/09/07 02:53:06;;;;;;;2.00;1.80;;;;;;;23.99;66.34;97840.44;4994151;28;20293;-26
2023/09/07 02:55:33;;;;;;;3.87;2.00;;;;;;;23.94;66.24;97831.72;4994239;28;20645;-26
2023/09/07 02:57:59;;;;;;;2.23;2.13;;;;;;;23.99;66.37;97838.75;4992841;28;20214;-26
2023/09/07 03:00:26;;;;;;;1.90;1.80;;;;;;;23.99;66.58;97836.19;4975761;28;20214;-26
2023/09/07 03:02:52;;;;;;;2.03;1.90;;;;;;;24.00;66.30;97840.50;4993230;28;20257;-27
2023/09/07 03:05:19;;;;;;;2.00;1.90;;;;;;;24.00;66.28;97843.06;4993653;28;20217;-26
2023/09/07 03:07:46;;;;;;;1.77;1.67;;;;;;;24.01;66.19;97837.06;4993991;28;20206;-26
2023/09/07 03:10:13;;;;;;;1.90;1.80;;;;;;;24.00;66.40;97837.91;4994246;28;20578;-26
2023/09/07 03:12:40;;;;;;;2.30;2.10;;;;;;;24.00;66.20;97843.06;4993277;28;20206;-26
2023/09/07 03:15:07;;;;;;;2.27;2.10;;;;;;;24.02;66.15;97845.66;4993496;28;20234;-26
2023/09/07 03:17:34;;;;;;;2.10;2.00;;;;;;;24.01;66.29;97844.78;4993823;28;20253;-26
2023/09/07 03:20:01;;;;;;;1.97;1.87;;;;;;;24.02;66.14;97845.66;4988181;28;20721;-26
2023/09/07 03:22:29;;;;;;;2.13;2.03;;;;;;;24.03;66.53;97847.38;4993405;28;20203;-26
2023/09/07 03:24:56;;;;;;;2.30;2.10;;;;;;;24.02;66.58;97849.09;4993727;28;20230;-26
2023/09/07 03:27:22;;;;;;;2.40;2.20;;;;;;;24.02;65.98;97854.25;4994930;28;20207;-26
2023/09/07 03:29:51;;;;;;;1.90;1.80;;;;;;;24.02;66.45;97851.69;4993897;28;20294;-26
2023/09/07 03:32:18;;;;;;;2.27;2.13;;;;;;;24.02;66.44;97854.25;4992222;28;20203;-26
2023/09/07 03:34:44;;;;;;;2.00;1.90;;;;;;;24.02;66.39;97850.78;4993538;28;20332;-26
2023/09/07 03:37:11;;;;;;;2.50;2.23;;;;;;;24.02;66.29;97855.94;4990696;28;20235;-26
2023/09/07 03:39:38;;;;;;;3.00;2.20;;;;;;;24.03;66.42;97853.41;4993171;28;20210;-26
2023/09/07 03:42:04;;;;;;;1.77;1.67;;;;;;;24.03;66.53;97852.53;4992723;28;20281;-27
2023/09/07 03:44:31;;;;;;;2.10;2.00;;;;;;;24.02;66.61;97849.09;4992855;28;20757;-26
2023/09/07 03:46:58;;;;;;;1.87;1.77;;;;;;;24.03;66.23;97849.94;4992642;28;20203;-26
2023/09/07 03:49:24;;;;;;;2.20;2.00;;;;;;;24.03;66.39;97843.13;4991806;28;20203;-26
2023/09/07 03:51:51;;;;;;;2.10;2.00;;;;;;;24.03;66.21;97850.84;4988700;28;20202;-26
2023/09/07 03:54:17;;;;;;;1.83;1.73;;;;;;;24.03;66.36;97843.13;4993077;28;20285;-26
2023/09/07 03:56:44;;;;;;;2.10;1.90;;;;;;;24.03;66.10;97835.44;4987798;28;20211;-26
2023/09/07 03:59:11;;;;;;;2.30;2.10;;;;;;;24.03;66.34;97844.81;4993337;28;20265;-26
2023/09/07 04:01:37;;;;;;;2.43;2.23;;;;;;;24.03;66.45;97839.69;4991556;28;20198;-26
2023/09/07 04:04:05;;;;;;;2.13;1.93;;;;;;;24.03;66.58;97842.25;4992274;28;20768;-26
2023/09/07 04:06:31;;;;;;;2.00;1.80;;;;;;;24.03;66.46;97838.00;4993137;28;20201;-26
2023/09/07 04:08:58;;;;;;;2.00;1.90;;;;;;;24.03;66.53;97835.44;4992488;28;20257;-26
2023/09/07 04:11:25;;;;;;;2.07;1.97;;;;;;;24.04;66.68;97836.31;4992684;28;20219;-26
2023/09/07 04:13:51;;;;;;;2.37;2.17;;;;;;;24.04;66.28;97844.00;4992497;28;20306;-26
2023/09/07 04:16:18;;;;;;;2.23;1.97;;;;;;;24.03;66.31;97844.81;4992936;28;20203;-26
2023/09/07 04:18:44;;;;;;;2.20;2.10;;;;;;;24.02;66.43;97840.53;4992201;28;20254;-29
2023/09/07 04:21:11;;;;;;;2.43;2.23;;;;;;;24.03;66.30;97847.38;4992679;28;20582;-26
2023/09/07 04:23:38;;;;;;;2.40;2.20;;;;;;;24.02;66.21;97843.97;4991763;28;20219;-26
2023/09/07 04:26:09;;;;;;;2.33;2.13;;;;;;;24.01;65.86;97839.66;4992629;28;20195;-26
2023/09/07 04:28:35;;;;;;;2.70;2.50;;;;;;;24.01;65.72;97844.78;4991513;28;20330;-26
2023/09/07 04:31:02;;;;;;;3.10;2.67;;;;;;;23.99;65.88;97843.91;4992273;28;20235;-26
2023/09/07 04:33:35;;;;;;;3.37;3.07;;;;;;;24.00;65.80;97845.63;4991979;28;20221;-26
2023/09/07 04:36:12;;;;;;;3.23;2.93;;;;;;;23.99;65.32;97851.59;4992397;28;20203;-26
2023/09/07 04:38:39;;;;;;;4.47;3.50;;;;;;;23.97;65.03;97845.53;4992333;28;20519;-26
2023/09/07 04:41:09;;;;;;;6.80;3.70;;;;;;;23.97;64.78;97854.94;4977999;28;20277;-26
2023/09/07 04:43:37;;;;;;;5.13;4.33;;;;;;;23.94;62.03;97845.44;4991972;28;20254;-26
2023/09/07 04:46:04;;;;;;;4.97;4.40;;;;;;;23.92;60.66;97853.94;4992415;28;20202;-26
2023/09/07 04:48:30;;;;;;;6.10;4.70;;;;;;;23.90;59.87;97851.34;4991902;28;20245;-26
2023/09/07 04:50:59;;;;;;;5.47;4.97;;;;;;;23.89;60.11;97844.44;4992295;28;20213;-26
2023/09/07 04:53:28;;;;;;;5.33;4.37;;;;;;;23.89;60.51;97853.88;4991286;28;20776;-26
2023/09/07 04:55:55;;;;;;;4.57;4.17;;;;;;;23.90;61.33;97860.72;4992533;28;20306;-26
2023/09/07 04:58:21;;;;;;;5.67;4.33;;;;;;;23.88;61.49;97855.56;4992565;28;20290;-26
2023/09/07 05:00:48;;;;;;;6.77;4.43;;;;;;;23.89;60.86;97857.28;4992258;28;20663;-26
2023/09/07 05:03:15;;;;;;;12.23;5.73;;;;;;;23.85;58.92;97858.03;4991515;28;20757;-26
2023/09/07 05:05:41;;;;;;;19.80;5.87;;;;;;;23.84;58.46;97858.00;4992327;28;20218;-26
2023/09/07 05:08:08;;;;;;;23.27;6.47;;;;;;;23.81;58.32;97860.50;4992580;28;20210;-26
2023/09/07 05:10:35;;;;;;;15.30;5.40;;;;;;;23.79;57.78;97855.31;4992064;28;20203;-26
2023/09/07 05:13:02;;;;;;;15.60;5.60;;;;;;;23.78;58.32;97861.28;4992131;28;20599;-26
2023/09/07 05:15:29;;;;;;;15.40;6.17;;;;;;;23.77;58.74;97861.25;4990616;28;20312;-26
2023/09/07 05:17:55;;;;;;;15.10;5.50;;;;;;;23.75;58.31;97858.66;4991687;28;20199;-26
2023/09/07 05:20:22;;;;;;;16.43;5.83;;;;;;;23.74;58.37;97864.59;4992162;28;20199;-26
2023/09/07 05:22:49;;;;;;;12.00;4.93;;;;;;;23.73;58.53;97875.69;4988814;28;20258;-26
2023/09/07 05:25:16;;;;;;;11.00;5.17;;;;;;;23.71;58.27;97868.78;4991793;28;20254;-26
2023/09/07 05:27:43;;;;;;;17.93;6.07;;;;;;;23.69;58.46;97875.56;4994172;28;20198;-26
2023/09/07 05:30:10;;;;;;;16.63;6.23;;;;;;;23.69;58.77;97871.31;4992061;28;20286;-26
2023/09/07 05:32:37;;;;;;;15.87;5.90;;;;;;;23.67;58.74;97879.78;4993813;28;20238;-26
2023/09/07 05:35:04;;;;;;;15.17;6.57;;;;;;;23.65;58.83;97878.91;4991151;28;20230;-26
2023/09/07 05:37:31;;;;;;;15.90;6.43;;;;;;;23.65;59.40;97882.31;4991649;28;20761;-26
2023/09/07 05:39:57;;;;;;;11.07;6.83;;;;;;;23.64;59.82;97893.41;4992058;28;20231;-26
2023/09/07 05:42:25;;;;;;;16.17;6.47;;;;;;;23.64;59.78;97895.09;4991605;28;20576;-26
2023/09/07 05:44:52;;;;;;;16.03;6.20;;;;;;;23.62;59.74;97894.22;4990838;28;20227;-26
2023/09/07 05:47:21;;;;;;;18.73;6.27;;;;;;;23.61;60.46;97890.78;4991491;28;20628;-26
2023/09/07 05:49:48;;;;;;;12.30;5.80;;;;;;;23.60;60.24;97901.88;4990676;28;20202;-26
2023/09/07 05:52:14;;;;;;;13.37;6.67;;;;;;;23.61;60.18;97902.72;4991325;28;20210;-26
2023/09/07 05:54:41;;;;;;;12.63;5.80;;;;;;;23.61;60.51;97903.59;4991305;28;20266;-26
2023/09/07 05:57:07;;;;;;;13.50;6.10;;;;;;;23.63;60.57;97898.50;4992756;28;20206;-26
2023/09/07 05:59:34;;;;;;;17.23;5.80;;;;;;;23.63;60.62;97898.50;4989827;28;20203;-26
2023/09/07 06:02:00;;;;;;;11.90;6.40;;;;;;;23.63;60.58;97899.38;4991595;28;20217;-26
2023/09/07 06:04:27;;;;;;;9.97;5.70;;;;;;;23.64;60.66;97901.13;4990406;28;20226;-26
2023/09/07 06:06:54;;;;;;;8.70;5.33;;;;;;;23.66;61.05;97893.47;4975124;28;20302;-26
2023/09/07 06:09:20;;;;;;;11.57;5.77;;;;;;;23.66;60.89;97890.91;4986712;28;20258;-26
2023/09/07 06:11:47;;;;;;;8.23;5.30;;;;;;;23.68;61.24;97891.81;4991495;28;20294;-26
2023/09/07 06:14:13;;;;;;;8.63;5.93;;;;;;;23.68;61.33;97890.09;4991349;28;20218;-26
2023/09/07 06:16:40;;;;;;;17.23;6.10;;;;;;;23.69;61.23;97890.97;4995198;28;20202;-26
2023/09/07 06:19:07;;;;;;;12.40;5.27;;;;;;;23.70;61.23;97902.97;4995221;28;20295;-26
2023/09/07 06:21:34;;;;;;;9.73;5.47;;;;;;;23.70;61.37;97897.84;4994673;28;20662;-26
2023/09/07 06:24:00;;;;;;;8.00;5.30;;;;;;;23.70;61.65;97901.28;4989970;28;20273;-26
2023/09/07 06:26:27;;;;;;;10.97;5.70;;;;;;;23.71;61.77;97903.00;4995436;28;20278;-26
2023/09/07 06:28:53;;;;;;;8.13;5.33;;;;;;;23.71;61.50;97904.72;4993922;28;20262;-27
2023/09/07 06:31:20;;;;;;;10.20;5.53;;;;;;;23.73;62.03;97905.63;4994804;28;20246;-26
2023/09/07 06:33:46;;;;;;;11.53;5.47;;;;;;;23.73;61.88;97906.50;4994710;28;20227;-26
2023/09/07 06:36:13;;;;;;;8.70;5.43;;;;;;;23.74;61.95;97899.69;4995203;28;20218;-26
2023/09/07 06:38:40;;;;;;;14.20;5.50;;;;;;;23.75;61.65;97906.53;4994846;28;20203;-31
2023/09/07 06:41:07;;;;;;;8.27;5.80;;;;;;;23.75;62.16;97902.28;4994432;28;20195;-27
2023/09/07 06:43:34;;;;;;;9.00;4.90;;;;;;;23.75;62.29;97907.41;5010935;23;20321;-23
2023/09/07 06:46:07;;;;;;;14.20;5.57;;;;;;;23.76;62.06;97905.69;5067395;28;20231;-23
2023/09/07 06:48:35;;;;;;;7.23;5.70;;;;;;;23.77;62.30;97907.47;5061575;28;20259;-23
2023/09/07 06:51:09;;;;;;;8.80;5.63;;;;;;;23.78;62.04;97914.31;5070943;28;20196;-23
2023/09/07 06:53:36;;;;;;;8.77;4.93;;;;;;;23.77;62.24;97916.00;5065910;28;20204;-24
2023/09/07 06:56:22;;;;;;;11.13;5.67;;;;;;;23.78;62.12;97912.63;5058355;28;20311;-23
2023/09/07 06:58:49;;;;;;;6.50;5.67;;;;;;;23.79;62.16;97916.03;5054229;28;20205;-24
2023/09/07 07:01:15;;;;;;;7.60;5.57;;;;;;;23.78;62.20;97920.31;5048732;28;20205;-24
2023/09/07 07:03:42;;;;;;;9.33;5.43;;;;;;;23.79;62.07;97916.03;5063140;28;20283;-23
2023/09/07 07:06:09;;;;;;;5.53;4.83;;;;;;;23.78;62.47;97915.19;5060223;28;20197;-23
2023/09/07 07:08:36;;;;;;;9.33;5.50;;;;;;;23.79;62.21;97919.50;5067017;28;20254;-23
2023/09/07 07:11:02;;;;;;;7.00;5.17;;;;;;;23.80;62.42;97918.66;5047173;28;20217;-24
2023/09/07 07:13:29;;;;;;;5.87;4.90;;;;;;;23.79;62.33;97916.91;5065284;28;20200;-24
2023/09/07 07:15:56;;;;;;;7.70;5.27;;;;;;;23.80;62.51;97925.50;5059191;28;20229;-23
2023/09/07 07:18:22;;;;;;;7.47;5.33;;;;;;;23.80;61.55;97926.34;5060808;28;20726;-24
2023/09/07 07:20:50;;;;;;;7.17;5.30;;;;;;;23.80;61.76;97923.78;5056508;28;20232;-23
2023/09/07 07:23:17;;;;;;;6.03;5.23;;;;;;;23.81;61.83;97922.09;5057147;28;20204;-24
2023/09/07 07:25:44;;;;;;;8.10;5.00;;;;;;;23.80;61.36;97918.66;5060962;28;20269;-23
2023/09/07 07:28:10;;;;;;;5.57;4.80;;;;;;;23.81;61.72;97914.41;5057932;28;20333;-24
2023/09/07 07:30:38;;;;;;;8.30;5.30;;;;;;;23.80;62.24;97921.22;5060863;28;20246;-26
2023/09/07 07:33:04;;;;;;;5.60;5.00;;;;;;;23.82;62.13;97922.13;5063863;28;20204;-24
2023/09/07 07:35:32;;;;;;;5.10;4.60;;;;;;;23.82;62.40;97928.97;5061153;28;20224;-24
2023/09/07 07:37:59;;;;;;;5.50;4.87;;;;;;;23.83;62.32;97925.59;5053854;28;20663;-23
2023/09/07 07:40:25;;;;;;;6.47;5.00;;;;;;;23.83;62.63;97929.00;5052980;28;20205;-24
2023/09/07 07:42:52;;;;;;;5.27;4.77;;;;;;;23.84;62.30;97922.19;5056849;28;20201;-24
2023/09/07 07:45:22;;;;;;;7.93;4.70;;;;;;;23.84;62.73;97925.63;5057525;28;20224;-25
2023/09/07 07:47:49;;;;;;;5.93;5.13;;;;;;;23.85;62.74;97927.34;5056876;28;20213;-23
2023/09/07 07:50:16;;;;;;;6.30;4.63;;;;;;;23.85;62.45;97931.59;5056605;28;20209;-23
2023/09/07 07:52:42;;;;;;;7.27;4.53;;;;;;;23.85;62.72;97929.91;5052996;28;20284;-23
2023/09/07 07:55:09;;;;;;;6.47;4.73;;;;;;;23.86;62.21;97928.22;5058395;28;20759;-23
2023/09/07 07:57:36;;;;;;;6.23;4.97;;;;;;;23.86;62.48;97928.22;5055653;28;20200;-23
2023/09/07 08:00:04;;;;;;;7.30;5.20;;;;;;;23.87;62.35;97930.84;5060472;28;20257;-23
2023/09/07 08:02:31;;;;;;;7.53;5.20;;;;;;;23.86;62.40;97929.06;5055553;28;20215;-24
2023/09/07 08:04:58;;;;;;;6.30;4.90;;;;;;;23.87;62.22;97927.38;5050177;28;20315;-23
2023/09/07 08:07:26;;;;;;;7.73;5.13;;;;;;;23.87;62.50;97922.25;5053240;28;20621;-23
2023/09/07 08:09:53;;;;;;;5.07;4.57;;;;;;;23.87;61.65;97919.69;5059505;28;20667;-23
2023/09/07 08:12:20;;;;;;;5.70;4.77;;;;;;;23.86;60.63;97918.81;5052210;28;20273;-24
2023/09/07 08:14:46;;;;;;;5.67;4.97;;;;;;;23.84;60.14;97917.03;5049654;28;20657;-23
2023/09/07 08:17:13;;;;;;;6.30;5.10;;;;;;;23.85;59.91;97914.50;5050030;28;20199;-23
2023/09/07 08:19:40;;;;;;;7.50;5.03;;;;;;;23.85;59.84;97911.06;5038942;28;20259;-23
2023/09/07 08:22:08;;;;;;;6.30;5.20;;;;;;;23.85;60.33;97911.94;5052478;28;20652;-23
2023/09/07 08:24:35;;;;;;;6.77;5.40;;;;;;;23.84;60.07;97912.78;5062850;28;20706;-23
2023/09/07 08:27:02;;;;;;;5.07;4.57;;;;;;;23.84;59.93;97919.59;5057745;28;20208;-23
2023/09/07 08:29:31;;;;;;;6.30;5.23;;;;;;;23.83;60.21;97923.03;5052322;28;20281;-23
2023/09/07 08:32:01;;;;;;;5.60;5.00;;;;;;;23.82;60.53;97918.69;5049483;28;20634;-23
2023/09/07 08:34:28;;;;;;;6.23;5.00;;;;;;;22.78;60.68;97752.53;5055410;28;20828;-23
2023/09/07 08:36:58;;;;;;;6.37;4.80;;;;;;;23.83;61.29;97908.47;5050021;28;20251;-23
2023/09/07 08:39:25;;;;;;;5.03;4.53;;;;;;;23.84;61.40;97911.91;5050998;28;20193;-24
2023/09/07 08:41:52;;;;;;;5.53;4.87;;;;;;;23.84;61.32;97905.09;5053583;28;20201;-23
2023/09/07 08:44:28;;;;;;;6.13;4.70;;;;;;;23.81;61.66;97899.00;5047192;28;20239;-24
2023/09/07 08:46:55;;;;;;;4.70;4.20;;;;;;;23.88;61.55;97904.31;5033101;28;20204;-23
2023/09/07 08:49:23;;;;;;;8.43;4.77;;;;;;;23.88;61.73;97895.75;5030355;28;20284;-23
2023/09/07 08:51:50;;;;;;;5.10;4.50;;;;;;;23.89;61.87;97893.22;5052029;28;20204;-23
2023/09/07 08:54:17;;;;;;;4.73;4.33;;;;;;;23.86;61.86;97884.59;5049690;28;20217;-23
2023/09/07 08:56:44;;;;;;;4.93;4.43;;;;;;;23.91;61.94;97886.44;5031798;28;20208;-23
2023/09/07 08:59:11;;;;;;;5.90;4.13;;;;;;;23.92;61.61;97887.31;5052951;28;20659;-24
2023/09/07 09:01:37;;;;;;;4.50;4.10;;;;;;;23.93;62.01;97887.34;5049916;28;20201;-23
2023/09/07 09:04:04;;;;;;;4.67;4.27;;;;;;;23.94;61.69;97883.94;5056600;28;20592;-23
2023/09/07 09:06:31;;;;;;;5.80;4.27;;;;;;;23.94;61.83;97889.09;5054892;28;20702;-23
2023/09/07 09:08:58;;;;;;;4.70;4.23;;;;;;;23.95;61.92;97880.56;5051834;28;20268;-23
2023/09/07 09:11:25;;;;;;;4.63;4.23;;;;;;;23.91;62.00;97871.03;5053580;28;20207;-23
2023/09/07 09:13:52;;;;;;;4.20;3.80;;;;;;;23.99;61.84;97886.66;5033984;28;20316;-24
2023/09/07 09:16:19;;;;;;;3.93;3.63;;;;;;;23.97;62.32;97881.50;5050098;28;20748;-24
2023/09/07 09:18:53;;;;;;;4.30;3.90;;;;;;;23.97;61.75;97880.63;5055892;28;20233;-24
2023/09/07 09:21:23;;;;;;;4.57;4.10;;;;;;;23.99;62.25;97884.97;5053455;28;20212;-23
2023/09/07 09:23:51;;;;;;;4.57;4.17;;;;;;;23.99;61.93;97892.69;5058150;28;20225;-23
2023/09/07 09:26:17;;;;;;;4.00;3.60;;;;;;;24.00;61.82;97886.72;5056352;28;20197;-23
2023/09/07 09:28:47;;;;;;;3.80;3.50;;;;;;;24.01;62.46;97877.31;5049754;28;20746;-24
2023/09/07 09:31:14;;;;;;;3.60;3.30;;;;;;;24.02;62.13;97876.47;5051903;28;20197;-24
2023/09/07 09:33:41;;;;;;;4.23;3.70;;;;;;;24.03;62.50;97873.06;5052722;28;20266;-23
2023/09/07 09:36:08;;;;;;;3.60;3.30;;;;;;;24.04;62.41;97877.38;5059584;28;20212;-23
2023/09/07 09:38:35;;;;;;;3.40;3.10;;;;;;;24.04;62.38;97877.38;5055283;28;20200;-24
2023/09/07 09:41:04;;;;;;;3.83;3.53;;;;;;;24.06;62.63;97885.97;5028565;28;20554;-24
2023/09/07 09:43:31;;;;;;;3.47;3.17;;;;;;;24.07;64.86;97888.59;5039669;28;21012;-24
2023/09/07 09:45:58;;;;;;;4.73;4.33;;;;;;;23.93;68.04;97871.94;5030731;28;20205;-24
2023/09/07 09:48:25;;;;;;;5.97;4.13;;;;;;;24.08;69.87;97905.75;5010362;28;20551;-24
2023/09/07 09:50:52;;;;;;;4.53;4.13;;;;;;;24.08;70.59;97897.16;5030224;28;20311;-24
2023/09/07 09:53:20;;;;;;;6.17;4.57;;;;;;;24.08;69.84;97894.59;5056629;28;20297;-24
2023/09/07 09:55:47;;;;;;;5.00;4.50;;;;;;;24.08;68.72;97897.16;5057400;28;20311;-24
2023/09/07 09:58:14;;;;;;;5.00;4.50;;;;;;;24.07;67.72;97890.31;5057119;28;20204;-24
2023/09/07 10:00:48;;;;;;;4.33;3.93;;;;;;;24.00;66.81;97879.00;5057010;28;20291;-24
2023/09/07 10:03:23;;;;;;;5.90;4.50;;;;;;;24.03;66.14;97881.66;5035079;28;20208;-23
2023/09/07 10:05:50;;;;;;;5.97;4.37;;;;;;;24.06;66.16;97892.00;5034681;28;20201;-24
2023/09/07 10:08:18;;;;;;;4.63;4.10;;;;;;;24.06;65.79;97892.00;5052793;28;20205;-24
2023/09/07 10:10:47;;;;;;;6.40;4.33;;;;;;;24.06;65.98;97883.41;5059899;28;20306;-23
2023/09/07 10:13:14;;;;;;;4.63;4.23;;;;;;;24.05;65.71;97879.13;5054812;28;20207;-24
2023/09/07 10:15:41;;;;;;;4.40;4.00;;;;;;;24.05;65.63;97873.97;5060993;28;20232;-24
2023/09/07 10:18:15;;;;;;;4.60;4.20;;;;;;;24.05;66.13;97874.84;5037936;28;20233;-23
2023/09/07 10:20:51;;;;;;;4.63;4.23;;;;;;;24.05;65.59;97867.16;5051861;28;20192;-23
2023/09/07 10:23:19;;;;;;;5.03;4.53;;;;;;;24.06;65.95;97862.88;5055429;28;20667;-24
2023/09/07 10:25:52;;;;;;;5.17;4.40;;;;;;;24.05;66.02;97873.97;5052777;28;20204;-23
2023/09/07 10:28:23;;;;;;;5.00;4.03;;;;;;;24.05;65.99;97872.28;5053293;28;20348;-24
2023/09/07 10:30:59;;;;;;;6.57;4.27;;;;;;;24.04;65.99;97870.53;5050079;28;20287;-23
2023/09/07 10:33:26;;;;;;;4.43;4.00;;;;;;;24.03;65.95;97868.81;5060209;28;20287;-24
2023/09/07 10:35:53;;;;;;;6.17;4.43;;;;;;;24.03;65.73;97875.63;5057565;28;20223;-23
2023/09/07 10:38:20;;;;;;;4.87;4.20;;;;;;;24.02;65.36;97864.50;5058560;28;20690;-24
2023/09/07 10:40:47;;;;;;;4.60;4.20;;;;;;;24.02;65.38;97864.50;5055270;28;20625;-24
2023/09/07 10:43:14;;;;;;;8.30;4.40;;;;;;;24.02;65.81;97877.34;5047888;28;20206;-24
2023/09/07 10:45:44;;;;;;;4.47;4.00;;;;;;;24.03;65.72;97868.81;5038981;28;20290;-24
2023/09/07 10:48:11;;;;;;;4.47;4.07;;;;;;;24.04;65.45;97872.25;5051769;28;20201;-23
2023/09/07 10:50:45;;;;;;;5.03;4.50;;;;;;;24.04;65.27;97867.13;5064001;28;20251;-24
2023/09/07 10:53:14;;;;;;;5.50;4.33;;;;;;;24.03;65.28;97871.38;5055524;28;20241;-24
2023/09/07 10:55:44;;;;;;;4.93;4.43;;;;;;;24.04;64.95;97873.09;5055173;28;20224;-24
2023/09/07 10:58:10;;;;;;;5.27;4.43;;;;;;;24.04;64.71;97867.13;5056821;28;20231;-24
2023/09/07 11:00:37;;;;;;;7.00;4.60;;;;;;;24.05;64.65;97861.13;5050780;28;20255;-24
2023/09/07 11:03:09;;;;;;;5.13;4.63;;;;;;;24.06;64.87;97857.72;5052258;28;20761;-24
2023/09/07 11:05:36;;;;;;;5.80;5.07;;;;;;;24.06;64.76;97858.59;5056488;28;20944;-23
2023/09/07 11:08:05;;;;;;;5.40;4.90;;;;;;;24.07;64.74;97859.50;5034566;28;20638;-23
2023/09/07 11:10:33;;;;;;;4.60;4.20;;;;;;;24.07;64.86;97852.63;5058496;28;20193;-24
2023/09/07 11:13:06;;;;;;;7.33;4.73;;;;;;;24.07;64.55;97850.06;5046566;28;20295;-23
2023/09/07 11:15:36;;;;;;;4.87;4.47;;;;;;;24.08;64.46;97856.97;5047309;28;20968;-23
2023/09/07 11:18:06;;;;;;;7.40;5.13;;;;;;;24.08;64.30;97845.81;5049688;28;20765;-24
2023/09/07 11:20:34;;;;;;;5.23;4.73;;;;;;;24.08;64.61;97859.53;5055660;28;20200;-24
2023/09/07 11:23:00;;;;;;;6.53;4.97;;;;;;;24.09;64.37;97847.53;5037169;28;20286;-24
2023/09/07 11:25:37;;;;;;;5.43;4.77;;;;;;;24.09;64.17;97839.84;5050937;28;20212;-23
2023/09/07 11:28:04;;;;;;;5.67;4.97;;;;;;;24.10;64.54;97842.44;5050696;28;20266;-24
2023/09/07 11:30:32;;;;;;;5.80;4.77;;;;;;;24.09;64.27;97844.97;5053355;28;20197;-24
2023/09/07 11:33:03;;;;;;;4.60;4.20;;;;;;;24.09;64.20;97837.25;5050019;28;20625;-23
2023/09/07 11:35:30;;;;;;;6.70;4.63;;;;;;;24.09;63.88;97835.56;5050822;28;20638;-23